sensor_id;sensor_type;location;lat;lon;timestamp;pressure;altitude;pressure_sealevel;temperature;humidity
54369;BME280;40266;52.434;17.056;2023-04-04T00:00:46;101911.48;;;-2.23;66.28
54369;BME280;40266;52.434;17.056;2023-04-04T00:04:31;101902.86;;;-2.24;66.34
54369;BME280;40266;52.434;17.056;2023-04-04T00:19:53;101896.66;;;-2.25;67.12
54369;BME280;40266;52.434;17.056;2023-04-04T00:27:18;101896.30;;;-2.19;67.28
54369;BME280;40266;52.434;17.056;2023-04-04T00:38:27;101887.90;;;-2.09;67.64
54369;BME280;40266;52.434;17.056;2023-04-04T01:04:17;101885.02;;;-1.97;67.74
54369;BME280;40266;52.434;17.056;2023-04-04T01:07:01;101883.36;;;-1.95;67.73
54369;BME280;40266;52.434;17.056;2023-04-04T01:09:44;101886.02;;;-1.94;67.76
54369;BME280;40266;52.434;17.056;2023-04-04T01:12:29;101881.13;;;-1.92;67.82
54369;BME280;40266;52.434;17.056;2023-04-04T01:15:13;101879.64;;;-1.92;67.71
54369;BME280;40266;52.434;17.056;2023-04-04T01:17:59;101878.71;;;-1.89;67.75
54369;BME280;40266;52.434;17.056;2023-04-04T01:20:57;101878.74;;;-1.89;67.84
54369;BME280;40266;52.434;17.056;2023-04-04T01:24:00;101875.58;;;-1.87;67.98
54369;BME280;40266;52.434;17.056;2023-04-04T01:27:07;101876.51;;;-1.85;68.05
54369;BME280;40266;52.434;17.056;2023-04-04T01:29:57;101870.47;;;-1.83;68.22
54369;BME280;40266;52.434;17.056;2023-04-04T01:32:42;101874.04;;;-1.80;68.33
54369;BME280;40266;52.434;17.056;2023-04-04T01:35:34;101867.98;;;-1.78;68.38
54369;BME280;40266;52.434;17.056;2023-04-04T01:38:28;101865.53;;;-1.76;68.50
54369;BME280;40266;52.434;17.056;2023-04-04T01:41:13;101860.40;;;-1.73;68.53
54369;BME280;40266;52.434;17.056;2023-04-04T01:44:03;101855.50;;;-1.71;68.66
54369;BME280;40266;52.434;17.056;2023-04-04T01:46:46;101848.58;;;-1.69;68.73
54369;BME280;40266;52.434;17.056;2023-04-04T01:49:29;101846.64;;;-1.67;68.79
54369;BME280;40266;52.434;17.056;2023-04-04T01:52:12;101844.70;;;-1.65;68.70
54369;BME280;40266;52.434;17.056;2023-04-04T01:54:55;101840.55;;;-1.62;68.69
54369;BME280;40266;52.434;17.056;2023-04-04T01:57:39;101840.35;;;-1.59;68.84
54369;BME280;40266;52.434;17.056;2023-04-04T02:00:22;101839.59;;;-1.57;68.84
54369;BME280;40266;52.434;17.056;2023-04-04T02:03:05;101836.27;;;-1.55;68.96
54369;BME280;40266;52.434;17.056;2023-04-04T02:05:48;101834.70;;;-1.53;68.83
54369;BME280;40266;52.434;17.056;2023-04-04T02:08:31;101832.82;;;-1.49;68.95
54369;BME280;40266;52.434;17.056;2023-04-04T02:11:14;101829.13;;;-1.47;69.18
54369;BME280;40266;52.434;17.056;2023-04-04T02:13:57;101831.14;;;-1.45;68.81
54369;BME280;40266;52.434;17.056;2023-04-04T02:16:41;101826.30;;;-1.42;68.94
54369;BME280;40266;52.434;17.056;2023-04-04T02:19:25;101826.08;;;-1.40;68.75
54369;BME280;40266;52.434;17.056;2023-04-04T02:22:09;101827.05;;;-1.37;68.65
54369;BME280;40266;52.434;17.056;2023-04-04T02:24:52;101823.94;;;-1.34;68.56
54369;BME280;40266;52.434;17.056;2023-04-04T02:27:39;101821.62;;;-1.33;68.50
54369;BME280;40266;52.434;17.056;2023-04-04T02:30:22;101821.32;;;-1.32;68.21
54369;BME280;40266;52.434;17.056;2023-04-04T02:33:06;101820.88;;;-1.30;68.11
54369;BME280;40266;52.434;17.056;2023-04-04T02:35:50;101816.20;;;-1.28;68.18
54369;BME280;40266;52.434;17.056;2023-04-04T02:38:33;101815.16;;;-1.24;68.25
54369;BME280;40266;52.434;17.056;2023-04-04T02:41:18;101814.39;;;-1.22;68.29
54369;BME280;40266;52.434;17.056;2023-04-04T02:44:01;101807.05;;;-1.22;68.18
54369;BME280;40266;52.434;17.056;2023-04-04T02:46:43;101803.86;;;-1.21;68.18
54369;BME280;40266;52.434;17.056;2023-04-04T02:49:28;101800.86;;;-1.19;68.18
54369;BME280;40266;52.434;17.056;2023-04-04T02:52:11;101799.41;;;-1.17;68.19
54369;BME280;40266;52.434;17.056;2023-04-04T02:54:56;101798.99;;;-1.15;67.85
54369;BME280;40266;52.434;17.056;2023-04-04T02:57:50;101799.11;;;-1.13;68.06
54369;BME280;40266;52.434;17.056;2023-04-04T03:00:34;101801.42;;;-1.11;67.84
54369;BME280;40266;52.434;17.056;2023-04-04T03:03:17;101800.82;;;-1.09;67.54
54369;BME280;40266;52.434;17.056;2023-04-04T03:06:01;101793.20;;;-1.08;67.37
54369;BME280;40266;52.434;17.056;2023-04-04T03:08:43;101801.23;;;-1.04;67.45
54369;BME280;40266;52.434;17.056;2023-04-04T03:11:26;101798.44;;;-1.01;67.72
54369;BME280;40266;52.434;17.056;2023-04-04T03:14:09;101795.46;;;-0.99;67.69
54369;BME280;40266;52.434;17.056;2023-04-04T03:16:53;101793.31;;;-0.97;67.65
54369;BME280;40266;52.434;17.056;2023-04-04T03:19:37;101789.77;;;-0.96;67.62
54369;BME280;40266;52.434;17.056;2023-04-04T03:22:20;101789.48;;;-0.95;67.77
54369;BME280;40266;52.434;17.056;2023-04-04T03:25:02;101786.58;;;-0.95;67.79
54369;BME280;40266;52.434;17.056;2023-04-04T03:27:45;101783.49;;;-0.95;67.65
54369;BME280;40266;52.434;17.056;2023-04-04T03:30:34;101784.42;;;-0.93;67.66
54369;BME280;40266;52.434;17.056;2023-04-04T03:33:17;101779.75;;;-0.94;67.49
54369;BME280;40266;52.434;17.056;2023-04-04T03:36:01;101784.42;;;-0.93;67.72
54369;BME280;40266;52.434;17.056;2023-04-04T03:38:45;101782.52;;;-0.94;68.00
54369;BME280;40266;52.434;17.056;2023-04-04T03:41:28;101783.08;;;-0.93;67.92
54369;BME280;40266;52.434;17.056;2023-04-04T03:44:11;101783.38;;;-0.94;67.62
54369;BME280;40266;52.434;17.056;2023-04-04T03:46:54;101777.96;;;-0.96;67.38
54369;BME280;40266;52.434;17.056;2023-04-04T03:49:37;101774.88;;;-0.99;67.42
54369;BME280;40266;52.434;17.056;2023-04-04T03:52:20;101773.66;;;-1.03;67.20
54369;BME280;40266;52.434;17.056;2023-04-04T03:55:03;101769.16;;;-1.08;67.15
54369;BME280;40266;52.434;17.056;2023-04-04T03:57:46;101769.59;;;-1.13;67.23
54369;BME280;40266;52.434;17.056;2023-04-04T04:00:30;101773.24;;;-1.16;67.28
54369;BME280;40266;52.434;17.056;2023-04-04T04:03:13;101772.87;;;-1.20;67.36
54369;BME280;40266;52.434;17.056;2023-04-04T04:05:59;101772.83;;;-1.25;67.53
54369;BME280;40266;52.434;17.056;2023-04-04T04:08:42;101772.23;;;-1.30;67.37
54369;BME280;40266;52.434;17.056;2023-04-04T04:11:25;101771.98;;;-1.35;67.40
54369;BME280;40266;52.434;17.056;2023-04-04T04:14:08;101768.27;;;-1.40;67.70
54369;BME280;40266;52.434;17.056;2023-04-04T04:16:51;101771.77;;;-1.46;67.76
54369;BME280;40266;52.434;17.056;2023-04-04T04:19:36;101774.59;;;-1.52;67.97
54369;BME280;40266;52.434;17.056;2023-04-04T04:22:19;101771.18;;;-1.59;68.15
54369;BME280;40266;52.434;17.056;2023-04-04T04:25:02;101771.94;;;-1.64;68.65
54369;BME280;40266;52.434;17.056;2023-04-04T04:27:46;101771.85;;;-1.69;68.66
54369;BME280;40266;52.434;17.056;2023-04-04T04:30:29;101769.58;;;-1.73;68.89
54369;BME280;40266;52.434;17.056;2023-04-04T04:33:12;101768.86;;;-1.78;69.07
54369;BME280;40266;52.434;17.056;2023-04-04T04:36:05;101771.73;;;-1.82;69.44
54369;BME280;40266;52.434;17.056;2023-04-04T04:39:00;101775.69;;;-1.85;69.85
54369;BME280;40266;52.434;17.056;2023-04-04T04:41:46;101777.80;;;-1.87;70.02
54369;BME280;40266;52.434;17.056;2023-04-04T04:44:29;101778.18;;;-1.86;70.30
54369;BME280;40266;52.434;17.056;2023-04-04T04:47:12;101779.13;;;-1.84;70.54
54369;BME280;40266;52.434;17.056;2023-04-04T04:49:55;101777.00;;;-1.82;70.70
54369;BME280;40266;52.434;17.056;2023-04-04T04:52:49;101776.98;;;-1.80;70.83
54369;BME280;40266;52.434;17.056;2023-04-04T04:55:34;101778.67;;;-1.76;71.03
54369;BME280;40266;52.434;17.056;2023-04-04T04:58:22;101782.31;;;-1.72;71.21
54369;BME280;40266;52.434;17.056;2023-04-04T05:01:10;101781.16;;;-1.68;71.21
54369;BME280;40266;52.434;17.056;2023-04-04T05:03:54;101779.48;;;-1.64;71.49
54369;BME280;40266;52.434;17.056;2023-04-04T05:06:42;101777.65;;;-1.59;71.90
54369;BME280;40266;52.434;17.056;2023-04-04T05:09:26;101783.00;;;-1.55;72.10
54369;BME280;40266;52.434;17.056;2023-04-04T05:12:09;101788.18;;;-1.51;72.30
54369;BME280;40266;52.434;17.056;2023-04-04T05:14:55;101787.95;;;-1.45;72.39
54369;BME280;40266;52.434;17.056;2023-04-04T05:17:39;101789.09;;;-1.39;72.60
54369;BME280;40266;52.434;17.056;2023-04-04T05:20:22;101785.10;;;-1.33;73.02
54369;BME280;40266;52.434;17.056;2023-04-04T05:23:06;101788.48;;;-1.27;73.08
54369;BME280;40266;52.434;17.056;2023-04-04T05:25:52;101789.46;;;-1.21;73.15
54369;BME280;40266;52.434;17.056;2023-04-04T05:28:36;101790.48;;;-1.14;73.20
54369;BME280;40266;52.434;17.056;2023-04-04T05:31:20;101795.05;;;-1.08;73.52
54369;BME280;40266;52.434;17.056;2023-04-04T05:34:05;101790.99;;;-1.03;73.65
54369;BME280;40266;52.434;17.056;2023-04-04T05:36:51;101788.75;;;-0.96;73.77
54369;BME280;40266;52.434;17.056;2023-04-04T05:39:35;101788.39;;;-0.89;73.77
54369;BME280;40266;52.434;17.056;2023-04-04T05:42:20;101784.45;;;-0.82;73.85
54369;BME280;40266;52.434;17.056;2023-04-04T05:45:06;101786.02;;;-0.74;73.93
54369;BME280;40266;52.434;17.056;2023-04-04T05:47:51;101785.95;;;-0.68;73.98
54369;BME280;40266;52.434;17.056;2023-04-04T05:50:35;101789.76;;;-0.59;74.19
54369;BME280;40266;52.434;17.056;2023-04-04T05:53:19;101791.48;;;-0.52;74.17
54369;BME280;40266;52.434;17.056;2023-04-04T05:56:04;101793.80;;;-0.43;73.87
54369;BME280;40266;52.434;17.056;2023-04-04T05:58:48;101793.10;;;-0.31;73.79
54369;BME280;40266;52.434;17.056;2023-04-04T06:01:31;101788.18;;;-0.22;73.81
54369;BME280;40266;52.434;17.056;2023-04-04T06:04:16;101791.27;;;-0.07;73.77
54369;BME280;40266;52.434;17.056;2023-04-04T06:07:00;101790.69;;;0.16;73.63
54369;BME280;40266;52.434;17.056;2023-04-04T06:09:43;101787.15;;;0.38;73.40
54369;BME280;40266;52.434;17.056;2023-04-04T06:12:26;101780.70;;;0.65;73.14
54369;BME280;40266;52.434;17.056;2023-04-04T06:15:09;101781.17;;;0.81;72.75
54369;BME280;40266;52.434;17.056;2023-04-04T06:17:53;101777.67;;;0.84;72.25
54369;BME280;40266;52.434;17.056;2023-04-04T06:20:38;101776.59;;;0.91;72.28
54369;BME280;40266;52.434;17.056;2023-04-04T06:23:21;101772.64;;;1.05;71.74
54369;BME280;40266;52.434;17.056;2023-04-04T06:26:06;101769.24;;;1.15;71.56
54369;BME280;40266;52.434;17.056;2023-04-04T06:28:50;101770.64;;;1.24;71.12
54369;BME280;40266;52.434;17.056;2023-04-04T06:31:38;101773.77;;;1.52;71.23
54369;BME280;40266;52.434;17.056;2023-04-04T06:34:28;101770.30;;;2.00;70.59
54369;BME280;40266;52.434;17.056;2023-04-04T06:37:14;101771.48;;;2.28;69.94
54369;BME280;40266;52.434;17.056;2023-04-04T06:40:06;101767.58;;;2.41;68.90
54369;BME280;40266;52.434;17.056;2023-04-04T06:42:50;101767.95;;;2.58;68.63
54369;BME280;40266;52.434;17.056;2023-04-04T06:45:36;101763.06;;;2.89;68.27
54369;BME280;40266;52.434;17.056;2023-04-04T06:48:19;101763.80;;;3.12;67.58
54369;BME280;40266;52.434;17.056;2023-04-04T06:51:06;101760.02;;;3.12;67.22
54369;BME280;40266;52.434;17.056;2023-04-04T06:53:51;101767.41;;;3.17;67.15
54369;BME280;40266;52.434;17.056;2023-04-04T06:56:34;101769.33;;;3.18;66.85
54369;BME280;40266;52.434;17.056;2023-04-04T06:59:17;101768.06;;;3.22;66.42
54369;BME280;40266;52.434;17.056;2023-04-04T07:02:00;101768.98;;;3.23;66.45
54369;BME280;40266;52.434;17.056;2023-04-04T07:04:43;101760.39;;;3.25;65.99
54369;BME280;40266;52.434;17.056;2023-04-04T07:07:26;101758.90;;;3.27;65.89
54369;BME280;40266;52.434;17.056;2023-04-04T07:10:09;101758.08;;;3.23;65.60
54369;BME280;40266;52.434;17.056;2023-04-04T07:12:52;101761.03;;;3.18;64.78
54369;BME280;40266;52.434;17.056;2023-04-04T07:15:35;101762.18;;;3.09;64.06
54369;BME280;40266;52.434;17.056;2023-04-04T07:18:18;101758.48;;;3.24;64.28
54369;BME280;40266;52.434;17.056;2023-04-04T07:21:01;101758.16;;;3.43;63.75
54369;BME280;40266;52.434;17.056;2023-04-04T07:23:43;101756.77;;;3.30;63.24
54369;BME280;40266;52.434;17.056;2023-04-04T07:26:27;101757.45;;;3.13;62.37
54369;BME280;40266;52.434;17.056;2023-04-04T07:29:10;101749.81;;;3.35;61.77
54369;BME280;40266;52.434;17.056;2023-04-04T07:31:53;101751.33;;;3.22;62.28
54369;BME280;40266;52.434;17.056;2023-04-04T07:34:35;101751.95;;;3.03;62.06
54369;BME280;40266;52.434;17.056;2023-04-04T07:37:18;101751.48;;;2.88;62.21
54369;BME280;40266;52.434;17.056;2023-04-04T07:40:01;101752.92;;;2.72;61.90
54369;BME280;40266;52.434;17.056;2023-04-04T07:42:45;101756.17;;;2.56;61.73
54369;BME280;40266;52.434;17.056;2023-04-04T07:45:28;101757.63;;;2.42;61.35
54369;BME280;40266;52.434;17.056;2023-04-04T07:48:10;101761.88;;;2.30;61.05
54369;BME280;40266;52.434;17.056;2023-04-04T07:50:53;101760.08;;;2.18;59.77
54369;BME280;40266;52.434;17.056;2023-04-04T07:53:36;101758.52;;;2.03;59.38
54369;BME280;40266;52.434;17.056;2023-04-04T07:56:19;101760.80;;;1.94;59.91
54369;BME280;40266;52.434;17.056;2023-04-04T07:59:03;101759.02;;;1.87;59.35
54369;BME280;40266;52.434;17.056;2023-04-04T08:01:46;101755.96;;;1.84;59.50
54369;BME280;40266;52.434;17.056;2023-04-04T08:04:28;101760.01;;;1.81;58.89
54369;BME280;40266;52.434;17.056;2023-04-04T08:07:12;101754.30;;;1.81;59.06
54369;BME280;40266;52.434;17.056;2023-04-04T08:09:55;101755.08;;;1.83;58.72
54369;BME280;40266;52.434;17.056;2023-04-04T08:12:38;101748.45;;;2.11;58.17
54369;BME280;40266;52.434;17.056;2023-04-04T08:15:21;101734.40;;;3.59;56.42
54369;BME280;40266;52.434;17.056;2023-04-04T08:18:04;101730.05;;;4.28;55.17
54369;BME280;40266;52.434;17.056;2023-04-04T08:20:47;101732.63;;;4.34;54.57
54369;BME280;40266;52.434;17.056;2023-04-04T08:23:30;101736.07;;;4.07;53.51
54369;BME280;40266;52.434;17.056;2023-04-04T08:26:13;101738.33;;;3.81;53.48
54369;BME280;40266;52.434;17.056;2023-04-04T08:28:56;101737.77;;;3.48;52.73
54369;BME280;40266;52.434;17.056;2023-04-04T08:31:38;101734.27;;;3.23;53.84
54369;BME280;40266;52.434;17.056;2023-04-04T08:34:23;101733.52;;;3.10;54.38
54369;BME280;40266;52.434;17.056;2023-04-04T08:37:07;101740.79;;;3.04;54.25
54369;BME280;40266;52.434;17.056;2023-04-04T08:39:49;101738.43;;;3.01;53.94
54369;BME280;40266;52.434;17.056;2023-04-04T08:42:32;101734.55;;;3.09;54.03
54369;BME280;40266;52.434;17.056;2023-04-04T08:45:20;101735.16;;;3.18;54.13
54369;BME280;40266;52.434;17.056;2023-04-04T08:48:04;101729.91;;;3.22;53.77
54369;BME280;40266;52.434;17.056;2023-04-04T08:50:48;101726.70;;;3.24;53.19
54369;BME280;40266;52.434;17.056;2023-04-04T08:53:32;101727.77;;;3.25;53.49
54369;BME280;40266;52.434;17.056;2023-04-04T08:56:16;101723.85;;;3.27;53.49
54369;BME280;40266;52.434;17.056;2023-04-04T08:58:59;101722.09;;;3.32;53.39
54369;BME280;40266;52.434;17.056;2023-04-04T09:01:42;101715.00;;;3.38;52.60
54369;BME280;40266;52.434;17.056;2023-04-04T09:04:26;101716.12;;;3.46;53.11
54369;BME280;40266;52.434;17.056;2023-04-04T09:07:09;101717.77;;;3.56;53.06
54369;BME280;40266;52.434;17.056;2023-04-04T09:09:54;101718.83;;;3.56;52.49
54369;BME280;40266;52.434;17.056;2023-04-04T09:12:44;101714.96;;;3.49;51.70
54369;BME280;40266;52.434;17.056;2023-04-04T09:15:30;101710.15;;;3.49;51.46
54369;BME280;40266;52.434;17.056;2023-04-04T09:18:15;101709.97;;;3.61;51.48
54369;BME280;40266;52.434;17.056;2023-04-04T09:20:58;101706.65;;;3.60;51.32
54369;BME280;40266;52.434;17.056;2023-04-04T09:23:41;101709.16;;;3.57;51.05
54369;BME280;40266;52.434;17.056;2023-04-04T09:26:25;101711.66;;;3.54;50.85
54369;BME280;40266;52.434;17.056;2023-04-04T09:29:08;101715.23;;;3.40;50.77
54369;BME280;40266;52.434;17.056;2023-04-04T09:31:51;101710.64;;;3.29;51.40
54369;BME280;40266;52.434;17.056;2023-04-04T09:34:34;101709.16;;;3.27;51.44
54369;BME280;40266;52.434;17.056;2023-04-04T09:37:18;101714.96;;;3.18;51.66
54369;BME280;40266;52.434;17.056;2023-04-04T09:40:03;101715.98;;;3.12;51.91
54369;BME280;40266;52.434;17.056;2023-04-04T09:42:46;101717.59;;;3.02;51.99
54369;BME280;40266;52.434;17.056;2023-04-04T09:45:30;101721.38;;;2.96;52.48
54369;BME280;40266;52.434;17.056;2023-04-04T09:48:29;101724.25;;;2.94;52.68
54369;BME280;40266;52.434;17.056;2023-04-04T09:51:14;101721.55;;;2.91;52.81
54369;BME280;40266;52.434;17.056;2023-04-04T09:53:58;101722.11;;;2.92;52.88
54369;BME280;40266;52.434;17.056;2023-04-04T09:56:41;101719.77;;;3.00;52.82
54369;BME280;40266;52.434;17.056;2023-04-04T09:59:25;101719.15;;;3.02;52.73
54369;BME280;40266;52.434;17.056;2023-04-04T10:02:09;101721.65;;;3.11;52.97
54369;BME280;40266;52.434;17.056;2023-04-04T10:04:53;101721.21;;;3.14;52.88
54369;BME280;40266;52.434;17.056;2023-04-04T10:07:47;101725.36;;;3.26;53.09
54369;BME280;40266;52.434;17.056;2023-04-04T10:10:30;101722.65;;;3.33;53.09
54369;BME280;40266;52.434;17.056;2023-04-04T10:13:25;101721.55;;;3.43;52.97
54369;BME280;40266;52.434;17.056;2023-04-04T10:16:10;101721.48;;;3.53;52.81
54369;BME280;40266;52.434;17.056;2023-04-04T10:18:54;101716.80;;;3.65;52.48
54369;BME280;40266;52.434;17.056;2023-04-04T10:21:37;101711.23;;;3.76;52.42
54369;BME280;40266;52.434;17.056;2023-04-04T10:24:20;101711.14;;;3.85;52.28
54369;BME280;40266;52.434;17.056;2023-04-04T10:27:03;101710.23;;;3.97;52.01
54369;BME280;40266;52.434;17.056;2023-04-04T10:29:46;101705.05;;;4.03;52.12
54369;BME280;40266;52.434;17.056;2023-04-04T10:32:41;101706.80;;;4.11;52.10
54369;BME280;40266;52.434;17.056;2023-04-04T10:35:25;101702.73;;;4.07;51.62
54369;BME280;40266;52.434;17.056;2023-04-04T10:38:11;101703.64;;;4.02;52.26
54369;BME280;40266;52.434;17.056;2023-04-04T10:40:58;101702.52;;;4.06;52.37
54369;BME280;40266;52.434;17.056;2023-04-04T10:43:44;101697.35;;;4.07;51.97
54369;BME280;40266;52.434;17.056;2023-04-04T10:46:31;101695.83;;;4.08;51.99
54369;BME280;40266;52.434;17.056;2023-04-04T10:49:17;101698.08;;;4.08;51.69
54369;BME280;40266;52.434;17.056;2023-04-04T10:52:00;101696.39;;;4.10;51.51
54369;BME280;40266;52.434;17.056;2023-04-04T10:54:44;101693.37;;;4.13;50.80
54369;BME280;40266;52.434;17.056;2023-04-04T10:57:28;101689.92;;;4.14;51.06
54369;BME280;40266;52.434;17.056;2023-04-04T11:00:14;101689.21;;;4.13;51.21
54369;BME280;40266;52.434;17.056;2023-04-04T11:03:00;101688.73;;;4.08;50.62
54369;BME280;40266;52.434;17.056;2023-04-04T11:05:44;101688.23;;;4.01;50.34
54369;BME280;40266;52.434;17.056;2023-04-04T11:08:30;101688.50;;;3.99;50.47
54369;BME280;40266;52.434;17.056;2023-04-04T11:11:19;101686.02;;;3.96;50.96
54369;BME280;40266;52.434;17.056;2023-04-04T11:14:04;101676.94;;;3.99;51.24
54369;BME280;40266;52.434;17.056;2023-04-04T11:16:50;101672.31;;;4.01;51.13
54369;BME280;40266;52.434;17.056;2023-04-04T11:19:34;101674.89;;;4.14;51.22
54369;BME280;40266;52.434;17.056;2023-04-04T11:22:17;101666.45;;;4.30;50.72
54369;BME280;40266;52.434;17.056;2023-04-04T11:25:12;101659.65;;;4.35;50.49
54369;BME280;40266;52.434;17.056;2023-04-04T11:28:14;101655.86;;;4.43;50.50
54369;BME280;40266;52.434;17.056;2023-04-04T11:34:09;101644.60;;;4.72;49.16
54369;BME280;40266;52.434;17.056;2023-04-04T11:36:53;101637.16;;;4.89;49.38
54369;BME280;40266;52.434;17.056;2023-04-04T11:39:46;101634.02;;;5.04;49.53
54369;BME280;40266;52.434;17.056;2023-04-04T11:42:36;101631.73;;;5.19;48.73
54369;BME280;40266;52.434;17.056;2023-04-04T11:45:24;101636.54;;;5.17;48.66
54369;BME280;40266;52.434;17.056;2023-04-04T11:48:09;101630.42;;;5.15;48.91
54369;BME280;40266;52.434;17.056;2023-04-04T11:50:52;101630.63;;;5.17;48.90
54369;BME280;40266;52.434;17.056;2023-04-04T11:53:35;101630.48;;;5.08;48.08
54369;BME280;40266;52.434;17.056;2023-04-04T11:56:18;101629.67;;;4.86;48.29
54369;BME280;40266;52.434;17.056;2023-04-04T11:59:02;101630.41;;;4.80;48.77
54369;BME280;40266;52.434;17.056;2023-04-04T12:01:53;101636.27;;;4.71;48.49
54369;BME280;40266;52.434;17.056;2023-04-04T12:04:38;101634.85;;;4.62;48.38
54369;BME280;40266;52.434;17.056;2023-04-04T12:07:27;101633.30;;;4.55;48.78
54369;BME280;40266;52.434;17.056;2023-04-04T12:10:11;101627.84;;;4.50;48.86
54369;BME280;40266;52.434;17.056;2023-04-04T12:12:54;101625.47;;;4.52;49.05
54369;BME280;40266;52.434;17.056;2023-04-04T12:15:38;101623.94;;;4.61;49.52
54369;BME280;40266;52.434;17.056;2023-04-04T12:18:25;101622.02;;;4.68;49.71
54369;BME280;40266;52.434;17.056;2023-04-04T12:21:08;101619.40;;;4.68;49.18
54369;BME280;40266;52.434;17.056;2023-04-04T12:23:50;101613.45;;;4.64;48.83
54369;BME280;40266;52.434;17.056;2023-04-04T12:26:39;101604.84;;;4.66;48.61
54369;BME280;40266;52.434;17.056;2023-04-04T12:29:24;101603.61;;;4.73;48.91
54369;BME280;40266;52.434;17.056;2023-04-04T12:32:08;101604.90;;;4.77;48.74
54369;BME280;40266;52.434;17.056;2023-04-04T12:34:59;101599.27;;;4.81;48.65
54369;BME280;40266;52.434;17.056;2023-04-04T12:38:03;101590.04;;;4.86;48.55
54369;BME280;40266;52.434;17.056;2023-04-04T12:40:52;101587.95;;;4.95;48.92
54369;BME280;40266;52.434;17.056;2023-04-04T12:43:40;101585.52;;;5.03;48.51
54369;BME280;40266;52.434;17.056;2023-04-04T12:46:25;101584.03;;;5.06;48.13
54369;BME280;40266;52.434;17.056;2023-04-04T12:49:10;101585.55;;;5.04;47.80
54369;BME280;40266;52.434;17.056;2023-04-04T12:51:53;101579.77;;;5.01;47.60
54369;BME280;40266;52.434;17.056;2023-04-04T12:54:38;101576.11;;;5.00;48.35
54369;BME280;40266;52.434;17.056;2023-04-04T12:57:23;101579.32;;;5.13;48.60
54369;BME280;40266;52.434;17.056;2023-04-04T13:00:07;101573.77;;;5.21;48.13
54369;BME280;40266;52.434;17.056;2023-04-04T13:03:12;101569.08;;;5.31;48.41
54369;BME280;40266;52.434;17.056;2023-04-04T13:05:57;101558.92;;;5.44;48.26
54369;BME280;40266;52.434;17.056;2023-04-04T13:08:58;101551.99;;;5.54;48.30
54369;BME280;40266;52.434;17.056;2023-04-04T13:12:10;101544.52;;;5.73;48.25
54369;BME280;40266;52.434;17.056;2023-04-04T13:15:02;101538.50;;;5.87;48.16
54369;BME280;40266;52.434;17.056;2023-04-04T13:17:49;101537.73;;;5.92;47.66
54369;BME280;40266;52.434;17.056;2023-04-04T13:20:32;101534.28;;;5.94;48.02
54369;BME280;40266;52.434;17.056;2023-04-04T13:23:15;101533.08;;;5.94;47.35
54369;BME280;40266;52.434;17.056;2023-04-04T13:25:58;101533.91;;;5.82;46.99
54369;BME280;40266;52.434;17.056;2023-04-04T13:28:41;101537.79;;;5.75;47.20
54369;BME280;40266;52.434;17.056;2023-04-04T13:31:24;101535.13;;;5.71;47.17
54369;BME280;40266;52.434;17.056;2023-04-04T13:34:08;101531.20;;;5.64;46.99
54369;BME280;40266;52.434;17.056;2023-04-04T13:36:50;101530.45;;;5.61;46.54
54369;BME280;40266;52.434;17.056;2023-04-04T13:39:34;101529.35;;;5.67;46.64
54369;BME280;40266;52.434;17.056;2023-04-04T13:42:17;101518.28;;;5.80;46.31
54369;BME280;40266;52.434;17.056;2023-04-04T13:45:00;101517.52;;;5.96;46.45
54369;BME280;40266;52.434;17.056;2023-04-04T13:47:43;101518.59;;;6.09;46.34
54369;BME280;40266;52.434;17.056;2023-04-04T13:50:27;101512.59;;;6.15;45.88
54369;BME280;40266;52.434;17.056;2023-04-04T13:53:10;101509.23;;;6.22;45.80
54369;BME280;40266;52.434;17.056;2023-04-04T13:55:53;101508.22;;;6.24;45.73
54369;BME280;40266;52.434;17.056;2023-04-04T13:58:56;101501.86;;;6.16;45.25
54369;BME280;40266;52.434;17.056;2023-04-04T14:01:39;101495.92;;;6.13;45.01
54369;BME280;40266;52.434;17.056;2023-04-04T14:04:22;101495.27;;;6.16;45.52
54369;BME280;40266;52.434;17.056;2023-04-04T14:07:06;101488.98;;;6.12;44.86
54369;BME280;40266;52.434;17.056;2023-04-04T14:09:49;101486.85;;;6.09;44.82
54369;BME280;40266;52.434;17.056;2023-04-04T14:12:31;101485.98;;;6.09;44.89
54369;BME280;40266;52.434;17.056;2023-04-04T14:15:14;101484.44;;;6.10;45.01
54369;BME280;40266;52.434;17.056;2023-04-04T14:17:57;101480.67;;;6.14;44.55
54369;BME280;40266;52.434;17.056;2023-04-04T14:20:40;101474.13;;;6.17;44.78
54369;BME280;40266;52.434;17.056;2023-04-04T14:23:23;101476.91;;;6.32;44.90
54369;BME280;40266;52.434;17.056;2023-04-04T14:26:06;101475.58;;;6.50;44.23
54369;BME280;40266;52.434;17.056;2023-04-04T14:28:49;101464.56;;;6.56;43.23
54369;BME280;40266;52.434;17.056;2023-04-04T14:31:32;101463.27;;;6.51;42.50
54369;BME280;40266;52.434;17.056;2023-04-04T14:34:16;101466.80;;;6.40;42.67
54369;BME280;40266;52.434;17.056;2023-04-04T14:36:59;101466.36;;;6.34;43.48
54369;BME280;40266;52.434;17.056;2023-04-04T14:39:42;101463.04;;;6.32;43.68
54369;BME280;40266;52.434;17.056;2023-04-04T14:42:25;101466.49;;;6.30;43.88
54369;BME280;40266;52.434;17.056;2023-04-04T14:45:09;101467.87;;;6.29;43.86
54369;BME280;40266;52.434;17.056;2023-04-04T14:47:53;101466.80;;;6.27;43.79
54369;BME280;40266;52.434;17.056;2023-04-04T14:50:36;101466.77;;;6.25;44.04
54369;BME280;40266;52.434;17.056;2023-04-04T14:53:20;101463.31;;;6.26;43.87
54369;BME280;40266;52.434;17.056;2023-04-04T14:56:03;101461.25;;;6.28;44.08
54369;BME280;40266;52.434;17.056;2023-04-04T14:58:46;101451.86;;;6.40;44.28
54369;BME280;40266;52.434;17.056;2023-04-04T15:01:29;101449.70;;;6.48;44.02
54369;BME280;40266;52.434;17.056;2023-04-04T15:04:12;101452.33;;;6.50;44.02
54369;BME280;40266;52.434;17.056;2023-04-04T15:06:55;101454.52;;;6.44;43.71
54369;BME280;40266;52.434;17.056;2023-04-04T15:09:42;101454.42;;;6.38;43.45